sensor_id;sensor_type;location;lat;lon;timestamp;P1;durP1;ratioP1;P2;durP2;ratioP2
60873;SDS011;46715;40.642;-7.920;2023-05-10T00:00:13;13.25;;;3.85;;
60873;SDS011;46715;40.642;-7.920;2023-05-10T00:02:16;16.05;;;3.60;;
60873;SDS011;46715;40.642;-7.920;2023-05-10T00:04:16;17.30;;;4.93;;
60873;SDS011;46715;40.642;-7.920;2023-05-10T00:06:17;12.43;;;3.40;;
60873;SDS011;46715;40.642;-7.920;2023-05-10T00:08:19;12.23;;;3.83;;
60873;SDS011;46715;40.642;-7.920;2023-05-10T00:10:20;15.75;;;3.80;;
60873;SDS011;46715;40.642;-7.920;2023-05-10T00:12:21;12.17;;;3.17;;
60873;SDS011;46715;40.642;-7.920;2023-05-10T00:14:22;13.77;;;3.63;;
60873;SDS011;46715;40.642;-7.920;2023-05-10T00:16:24;12.00;;;4.27;;
60873;SDS011;46715;40.642;-7.920;2023-05-10T00:18:25;11.68;;;3.03;;
60873;SDS011;46715;40.642;-7.920;2023-05-10T00:20:27;13.82;;;3.60;;
60873;SDS011;46715;40.642;-7.920;2023-05-10T00:22:27;10.40;;;2.83;;
60873;SDS011;46715;40.642;-7.920;2023-05-10T00:24:28;13.00;;;3.93;;
60873;SDS011;46715;40.642;-7.920;2023-05-10T00:26:29;11.60;;;3.43;;
60873;SDS011;46715;40.642;-7.920;2023-05-10T00:28:30;15.15;;;4.50;;
60873;SDS011;46715;40.642;-7.920;2023-05-10T00:32:33;16.95;;;4.10;;
60873;SDS011;46715;40.642;-7.920;2023-05-10T00:36:35;11.23;;;4.38;;
60873;SDS011;46715;40.642;-7.920;2023-05-10T00:38:36;14.48;;;3.88;;
60873;SDS011;46715;40.642;-7.920;2023-05-10T00:40:37;16.30;;;3.60;;
60873;SDS011;46715;40.642;-7.920;2023-05-10T00:42:42;11.90;;;3.33;;
60873;SDS011;46715;40.642;-7.920;2023-05-10T00:44:43;13.57;;;3.60;;
60873;SDS011;46715;40.642;-7.920;2023-05-10T00:46:44;10.00;;;3.38;;
60873;SDS011;46715;40.642;-7.920;2023-05-10T00:48:45;14.35;;;3.63;;
60873;SDS011;46715;40.642;-7.920;2023-05-10T00:50:47;10.38;;;3.15;;
60873;SDS011;46715;40.642;-7.920;2023-05-10T00:52:48;12.80;;;3.40;;
60873;SDS011;46715;40.642;-7.920;2023-05-10T00:54:50;13.65;;;3.80;;
60873;SDS011;46715;40.642;-7.920;2023-05-10T00:56:53;13.75;;;3.67;;
60873;SDS011;46715;40.642;-7.920;2023-05-10T00:58:54;13.48;;;3.30;;
60873;SDS011;46715;40.642;-7.920;2023-05-10T01:00:56;13.63;;;4.03;;
60873;SDS011;46715;40.642;-7.920;2023-05-10T01:02:58;15.38;;;3.80;;
60873;SDS011;46715;40.642;-7.920;2023-05-10T01:04:58;14.37;;;3.70;;
60873;SDS011;46715;40.642;-7.920;2023-05-10T01:07:00;11.05;;;3.17;;
60873;SDS011;46715;40.642;-7.920;2023-05-10T01:09:01;19.27;;;4.27;;
60873;SDS011;46715;40.642;-7.920;2023-05-10T01:11:02;16.13;;;3.83;;
60873;SDS011;46715;40.642;-7.920;2023-05-10T01:13:03;14.00;;;3.93;;
60873;SDS011;46715;40.642;-7.920;2023-05-10T01:15:04;15.30;;;4.20;;
60873;SDS011;46715;40.642;-7.920;2023-05-10T01:17:08;15.75;;;4.47;;
60873;SDS011;46715;40.642;-7.920;2023-05-10T01:19:16;17.13;;;3.92;;
60873;SDS011;46715;40.642;-7.920;2023-05-10T01:23:57;11.98;;;3.78;;
60873;SDS011;46715;40.642;-7.920;2023-05-10T01:35:31;16.35;;;4.43;;
60873;SDS011;46715;40.642;-7.920;2023-05-10T01:37:43;12.00;;;3.63;;
60873;SDS011;46715;40.642;-7.920;2023-05-10T01:39:53;12.38;;;3.38;;
60873;SDS011;46715;40.642;-7.920;2023-05-10T01:42:09;11.75;;;3.70;;
60873;SDS011;46715;40.642;-7.920;2023-05-10T01:44:23;18.30;;;3.80;;
60873;SDS011;46715;40.642;-7.920;2023-05-10T01:46:34;16.15;;;4.05;;
60873;SDS011;46715;40.642;-7.920;2023-05-10T01:48:40;11.63;;;3.70;;
60873;SDS011;46715;40.642;-7.920;2023-05-10T01:50:48;10.18;;;3.40;;
60873;SDS011;46715;40.642;-7.920;2023-05-10T01:52:53;15.10;;;3.80;;
60873;SDS011;46715;40.642;-7.920;2023-05-10T01:54:58;14.20;;;4.80;;
60873;SDS011;46715;40.642;-7.920;2023-05-10T01:57:03;14.90;;;4.07;;
60873;SDS011;46715;40.642;-7.920;2023-05-10T01:59:11;15.18;;;4.15;;
60873;SDS011;46715;40.642;-7.920;2023-05-10T02:01:16;12.40;;;3.50;;
60873;SDS011;46715;40.642;-7.920;2023-05-10T02:03:22;11.98;;;3.60;;
60873;SDS011;46715;40.642;-7.920;2023-05-10T02:05:24;14.48;;;4.13;;
60873;SDS011;46715;40.642;-7.920;2023-05-10T02:07:28;14.48;;;3.88;;
60873;SDS011;46715;40.642;-7.920;2023-05-10T02:09:33;12.93;;;3.25;;
60873;SDS011;46715;40.642;-7.920;2023-05-10T02:11:35;18.17;;;3.85;;
60873;SDS011;46715;40.642;-7.920;2023-05-10T02:13:39;12.70;;;3.40;;
60873;SDS011;46715;40.642;-7.920;2023-05-10T02:15:42;15.55;;;3.42;;
60873;SDS011;46715;40.642;-7.920;2023-05-10T02:17:45;7.82;;;2.97;;
60873;SDS011;46715;40.642;-7.920;2023-05-10T02:21:50;14.13;;;3.75;;
60873;SDS011;46715;40.642;-7.920;2023-05-10T02:23:52;11.88;;;3.55;;
60873;SDS011;46715;40.642;-7.920;2023-05-10T02:25:55;13.02;;;3.55;;
60873;SDS011;46715;40.642;-7.920;2023-05-10T02:27:58;14.98;;;3.67;;
60873;SDS011;46715;40.642;-7.920;2023-05-10T02:30:02;13.90;;;3.63;;
60873;SDS011;46715;40.642;-7.920;2023-05-10T02:32:03;14.18;;;3.65;;
60873;SDS011;46715;40.642;-7.920;2023-05-10T02:34:07;13.88;;;4.20;;
60873;SDS011;46715;40.642;-7.920;2023-05-10T02:36:10;10.90;;;3.80;;
60873;SDS011;46715;40.642;-7.920;2023-05-10T02:38:13;16.13;;;3.72;;
60873;SDS011;46715;40.642;-7.920;2023-05-10T02:40:15;13.45;;;3.88;;
60873;SDS011;46715;40.642;-7.920;2023-05-10T02:42:19;14.18;;;3.90;;
60873;SDS011;46715;40.642;-7.920;2023-05-10T02:44:26;18.30;;;4.47;;
60873;SDS011;46715;40.642;-7.920;2023-05-10T02:46:30;16.75;;;4.20;;
60873;SDS011;46715;40.642;-7.920;2023-05-10T02:48:32;11.30;;;3.90;;
60873;SDS011;46715;40.642;-7.920;2023-05-10T02:50:33;15.40;;;4.17;;
60873;SDS011;46715;40.642;-7.920;2023-05-10T02:52:39;19.95;;;3.90;;
60873;SDS011;46715;40.642;-7.920;2023-05-10T02:54:49;12.48;;;3.50;;
60873;SDS011;46715;40.642;-7.920;2023-05-10T02:56:58;13.10;;;3.67;;
60873;SDS011;46715;40.642;-7.920;2023-05-10T02:59:04;12.13;;;3.50;;
60873;SDS011;46715;40.642;-7.920;2023-05-10T03:01:05;16.67;;;4.28;;
60873;SDS011;46715;40.642;-7.920;2023-05-10T03:03:09;19.77;;;4.65;;
60873;SDS011;46715;40.642;-7.920;2023-05-10T03:05:10;11.77;;;3.85;;
60873;SDS011;46715;40.642;-7.920;2023-05-10T03:07:11;13.93;;;4.18;;
60873;SDS011;46715;40.642;-7.920;2023-05-10T03:09:12;17.20;;;3.90;;
60873;SDS011;46715;40.642;-7.920;2023-05-10T03:13:43;11.38;;;4.43;;
60873;SDS011;46715;40.642;-7.920;2023-05-10T03:16:08;13.93;;;3.90;;
60873;SDS011;46715;40.642;-7.920;2023-05-10T03:18:28;14.13;;;3.90;;
60873;SDS011;46715;40.642;-7.920;2023-05-10T03:20:36;12.40;;;3.55;;
60873;SDS011;46715;40.642;-7.920;2023-05-10T03:22:49;14.63;;;4.20;;
60873;SDS011;46715;40.642;-7.920;2023-05-10T03:24:55;14.93;;;4.05;;
60873;SDS011;46715;40.642;-7.920;2023-05-10T03:27:01;14.80;;;3.70;;
60873;SDS011;46715;40.642;-7.920;2023-05-10T03:29:05;14.65;;;3.85;;
60873;SDS011;46715;40.642;-7.920;2023-05-10T03:31:10;15.50;;;4.35;;
60873;SDS011;46715;40.642;-7.920;2023-05-10T03:33:14;15.18;;;4.18;;
60873;SDS011;46715;40.642;-7.920;2023-05-10T03:35:18;14.70;;;4.10;;
60873;SDS011;46715;40.642;-7.920;2023-05-10T03:37:20;13.07;;;3.97;;
60873;SDS011;46715;40.642;-7.920;2023-05-10T03:39:21;14.13;;;4.05;;
60873;SDS011;46715;40.642;-7.920;2023-05-10T03:41:27;13.65;;;4.15;;
60873;SDS011;46715;40.642;-7.920;2023-05-10T03:43:28;13.63;;;4.45;;
60873;SDS011;46715;40.642;-7.920;2023-05-10T03:45:29;10.83;;;3.80;;
60873;SDS011;46715;40.642;-7.920;2023-05-10T03:49:33;13.20;;;4.13;;
60873;SDS011;46715;40.642;-7.920;2023-05-10T03:51:35;15.40;;;3.80;;
60873;SDS011;46715;40.642;-7.920;2023-05-10T03:53:38;11.23;;;3.67;;
60873;SDS011;46715;40.642;-7.920;2023-05-10T03:55:39;18.45;;;3.97;;
60873;SDS011;46715;40.642;-7.920;2023-05-10T03:57:39;16.07;;;4.10;;
60873;SDS011;46715;40.642;-7.920;2023-05-10T03:59:41;12.57;;;3.63;;
60873;SDS011;46715;40.642;-7.920;2023-05-10T04:01:42;16.83;;;4.80;;
60873;SDS011;46715;40.642;-7.920;2023-05-10T04:03:43;13.55;;;4.25;;
60873;SDS011;46715;40.642;-7.920;2023-05-10T04:05:45;12.55;;;4.05;;
60873;SDS011;46715;40.642;-7.920;2023-05-10T04:07:46;14.57;;;4.33;;
60873;SDS011;46715;40.642;-7.920;2023-05-10T04:09:50;16.88;;;3.72;;
60873;SDS011;46715;40.642;-7.920;2023-05-10T04:11:51;18.45;;;4.82;;
60873;SDS011;46715;40.642;-7.920;2023-05-10T04:13:52;14.73;;;4.23;;
60873;SDS011;46715;40.642;-7.920;2023-05-10T04:15:53;13.60;;;4.13;;
60873;SDS011;46715;40.642;-7.920;2023-05-10T04:17:54;17.70;;;4.77;;
60873;SDS011;46715;40.642;-7.920;2023-05-10T04:19:54;14.87;;;4.10;;
60873;SDS011;46715;40.642;-7.920;2023-05-10T04:21:57;15.88;;;4.05;;
60873;SDS011;46715;40.642;-7.920;2023-05-10T04:23:58;17.38;;;4.53;;
60873;SDS011;46715;40.642;-7.920;2023-05-10T04:26:00;16.10;;;4.28;;
60873;SDS011;46715;40.642;-7.920;2023-05-10T04:28:01;16.70;;;3.60;;
60873;SDS011;46715;40.642;-7.920;2023-05-10T04:30:02;9.03;;;3.90;;
60873;SDS011;46715;40.642;-7.920;2023-05-10T04:32:03;12.50;;;3.83;;
60873;SDS011;46715;40.642;-7.920;2023-05-10T04:34:04;16.02;;;4.82;;
60873;SDS011;46715;40.642;-7.920;2023-05-10T04:36:05;12.20;;;3.73;;
60873;SDS011;46715;40.642;-7.920;2023-05-10T04:38:06;16.88;;;4.63;;
60873;SDS011;46715;40.642;-7.920;2023-05-10T04:40:09;12.00;;;3.80;;
60873;SDS011;46715;40.642;-7.920;2023-05-10T04:42:10;15.45;;;3.75;;
60873;SDS011;46715;40.642;-7.920;2023-05-10T04:44:12;13.25;;;4.68;;
60873;SDS011;46715;40.642;-7.920;2023-05-10T04:46:13;11.50;;;3.37;;
60873;SDS011;46715;40.642;-7.920;2023-05-10T04:48:13;14.53;;;3.97;;
60873;SDS011;46715;40.642;-7.920;2023-05-10T04:50:14;14.57;;;3.90;;
60873;SDS011;46715;40.642;-7.920;2023-05-10T04:52:15;20.55;;;5.20;;
60873;SDS011;46715;40.642;-7.920;2023-05-10T04:54:17;11.23;;;3.63;;
60873;SDS011;46715;40.642;-7.920;2023-05-10T04:56:19;13.60;;;3.55;;
60873;SDS011;46715;40.642;-7.920;2023-05-10T04:58:21;9.45;;;3.60;;
60873;SDS011;46715;40.642;-7.920;2023-05-10T05:00:22;15.48;;;4.20;;
60873;SDS011;46715;40.642;-7.920;2023-05-10T05:02:23;10.98;;;3.65;;
60873;SDS011;46715;40.642;-7.920;2023-05-10T05:04:24;10.83;;;3.43;;
60873;SDS011;46715;40.642;-7.920;2023-05-10T05:06:26;13.98;;;3.72;;
60873;SDS011;46715;40.642;-7.920;2023-05-10T05:10:28;11.35;;;4.15;;
60873;SDS011;46715;40.642;-7.920;2023-05-10T05:12:29;12.53;;;4.23;;
60873;SDS011;46715;40.642;-7.920;2023-05-10T05:14:30;13.93;;;3.97;;
60873;SDS011;46715;40.642;-7.920;2023-05-10T05:16:31;12.40;;;4.07;;
60873;SDS011;46715;40.642;-7.920;2023-05-10T05:18:33;12.02;;;4.03;;
60873;SDS011;46715;40.642;-7.920;2023-05-10T05:20:34;13.75;;;4.43;;
60873;SDS011;46715;40.642;-7.920;2023-05-10T05:22:37;13.93;;;2.80;;
60873;SDS011;46715;40.642;-7.920;2023-05-10T05:24:39;18.58;;;3.78;;
60873;SDS011;46715;40.642;-7.920;2023-05-10T05:26:41;10.35;;;3.13;;
60873;SDS011;46715;40.642;-7.920;2023-05-10T05:30:44;16.90;;;3.60;;
60873;SDS011;46715;40.642;-7.920;2023-05-10T05:32:44;13.15;;;3.53;;
60873;SDS011;46715;40.642;-7.920;2023-05-10T05:34:47;9.32;;;2.97;;
60873;SDS011;46715;40.642;-7.920;2023-05-10T05:36:49;15.23;;;3.17;;
60873;SDS011;46715;40.642;-7.920;2023-05-10T05:38:52;10.55;;;3.17;;
60873;SDS011;46715;40.642;-7.920;2023-05-10T05:40:53;10.38;;;3.63;;
60873;SDS011;46715;40.642;-7.920;2023-05-10T05:42:54;14.07;;;3.07;;
60873;SDS011;46715;40.642;-7.920;2023-05-10T05:44:57;10.80;;;2.97;;
60873;SDS011;46715;40.642;-7.920;2023-05-10T05:46:57;8.07;;;3.20;;
60873;SDS011;46715;40.642;-7.920;2023-05-10T05:48:58;19.33;;;3.47;;
60873;SDS011;46715;40.642;-7.920;2023-05-10T05:50:59;6.13;;;2.63;;
60873;SDS011;46715;40.642;-7.920;2023-05-10T05:52:59;9.20;;;3.13;;
60873;SDS011;46715;40.642;-7.920;2023-05-10T05:55:01;14.05;;;3.90;;
60873;SDS011;46715;40.642;-7.920;2023-05-10T05:59:03;10.05;;;3.05;;
60873;SDS011;46715;40.642;-7.920;2023-05-10T06:01:05;13.93;;;3.00;;
60873;SDS011;46715;40.642;-7.920;2023-05-10T06:03:06;13.77;;;3.10;;
60873;SDS011;46715;40.642;-7.920;2023-05-10T06:05:07;12.27;;;2.90;;
60873;SDS011;46715;40.642;-7.920;2023-05-10T06:07:08;8.30;;;2.63;;
60873;SDS011;46715;40.642;-7.920;2023-05-10T06:09:09;18.13;;;3.10;;
60873;SDS011;46715;40.642;-7.920;2023-05-10T06:11:10;10.02;;;3.00;;
60873;SDS011;46715;40.642;-7.920;2023-05-10T06:13:11;9.67;;;2.90;;
60873;SDS011;46715;40.642;-7.920;2023-05-10T06:15:12;7.93;;;2.50;;
60873;SDS011;46715;40.642;-7.920;2023-05-10T06:17:13;9.53;;;2.47;;
60873;SDS011;46715;40.642;-7.920;2023-05-10T06:19:14;13.60;;;3.10;;
60873;SDS011;46715;40.642;-7.920;2023-05-10T06:21:14;8.07;;;2.97;;
60873;SDS011;46715;40.642;-7.920;2023-05-10T06:23:18;8.38;;;2.97;;
60873;SDS011;46715;40.642;-7.920;2023-05-10T06:27:21;12.05;;;2.55;;
60873;SDS011;46715;40.642;-7.920;2023-05-10T06:29:22;9.40;;;2.67;;
60873;SDS011;46715;40.642;-7.920;2023-05-10T06:31:22;12.60;;;2.40;;
60873;SDS011;46715;40.642;-7.920;2023-05-10T06:33:23;6.93;;;2.23;;
60873;SDS011;46715;40.642;-7.920;2023-05-10T06:35:24;5.03;;;2.30;;
60873;SDS011;46715;40.642;-7.920;2023-05-10T06:37:26;8.50;;;2.33;;
60873;SDS011;46715;40.642;-7.920;2023-05-10T06:39:27;9.95;;;2.45;;
60873;SDS011;46715;40.642;-7.920;2023-05-10T06:41:29;4.85;;;2.15;;
60873;SDS011;46715;40.642;-7.920;2023-05-10T06:43:30;6.47;;;2.00;;
60873;SDS011;46715;40.642;-7.920;2023-05-10T06:45:30;11.47;;;2.10;;
60873;SDS011;46715;40.642;-7.920;2023-05-10T06:47:31;12.07;;;2.00;;
60873;SDS011;46715;40.642;-7.920;2023-05-10T06:49:32;10.73;;;2.20;;
60873;SDS011;46715;40.642;-7.920;2023-05-10T06:51:33;7.80;;;1.73;;
60873;SDS011;46715;40.642;-7.920;2023-05-10T06:53:34;7.20;;;1.80;;
60873;SDS011;46715;40.642;-7.920;2023-05-10T06:55:35;7.80;;;2.50;;
60873;SDS011;46715;40.642;-7.920;2023-05-10T06:57:36;10.10;;;2.30;;
60873;SDS011;46715;40.642;-7.920;2023-05-10T06:59:37;6.07;;;2.30;;
60873;SDS011;46715;40.642;-7.920;2023-05-10T07:01:38;8.38;;;1.95;;
60873;SDS011;46715;40.642;-7.920;2023-05-10T07:03:38;8.07;;;2.43;;
60873;SDS011;46715;40.642;-7.920;2023-05-10T07:05:40;6.05;;;2.38;;
60873;SDS011;46715;40.642;-7.920;2023-05-10T07:07:41;5.20;;;2.10;;
60873;SDS011;46715;40.642;-7.920;2023-05-10T07:09:42;9.10;;;2.28;;
60873;SDS011;46715;40.642;-7.920;2023-05-10T07:11:44;5.72;;;1.77;;
60873;SDS011;46715;40.642;-7.920;2023-05-10T07:13:46;9.65;;;2.15;;
60873;SDS011;46715;40.642;-7.920;2023-05-10T07:15:47;7.75;;;2.35;;
60873;SDS011;46715;40.642;-7.920;2023-05-10T07:17:48;6.35;;;2.28;;
60873;SDS011;46715;40.642;-7.920;2023-05-10T07:19:49;5.10;;;1.55;;
60873;SDS011;46715;40.642;-7.920;2023-05-10T07:21:50;8.27;;;1.45;;
60873;SDS011;46715;40.642;-7.920;2023-05-10T07:23:51;7.75;;;1.42;;
60873;SDS011;46715;40.642;-7.920;2023-05-10T07:25:52;5.10;;;1.90;;
60873;SDS011;46715;40.642;-7.920;2023-05-10T07:30:08;4.47;;;1.50;;
60873;SDS011;46715;40.642;-7.920;2023-05-10T07:32:09;7.32;;;1.35;;
60873;SDS011;46715;40.642;-7.920;2023-05-10T07:34:11;3.55;;;1.10;;
60873;SDS011;46715;40.642;-7.920;2023-05-10T07:36:12;4.45;;;1.17;;
60873;SDS011;46715;40.642;-7.920;2023-05-10T07:38:13;4.40;;;1.38;;
60873;SDS011;46715;40.642;-7.920;2023-05-10T07:40:14;5.57;;;1.40;;
60873;SDS011;46715;40.642;-7.920;2023-05-10T07:42:15;4.22;;;1.17;;
60873;SDS011;46715;40.642;-7.920;2023-05-10T07:44:16;3.30;;;1.25;;
60873;SDS011;46715;40.642;-7.920;2023-05-10T07:46:19;5.32;;;1.52;;
60873;SDS011;46715;40.642;-7.920;2023-05-10T07:48:20;7.65;;;0.98;;
60873;SDS011;46715;40.642;-7.920;2023-05-10T07:50:21;4.10;;;1.05;;
60873;SDS011;46715;40.642;-7.920;2023-05-10T07:52:22;4.72;;;1.00;;
60873;SDS011;46715;40.642;-7.920;2023-05-10T07:54:23;6.53;;;1.50;;
60873;SDS011;46715;40.642;-7.920;2023-05-10T07:58:29;5.60;;;1.58;;
60873;SDS011;46715;40.642;-7.920;2023-05-10T08:00:30;3.35;;;1.17;;
60873;SDS011;46715;40.642;-7.920;2023-05-10T08:02:31;2.63;;;0.90;;
60873;SDS011;46715;40.642;-7.920;2023-05-10T08:04:33;7.00;;;1.67;;
60873;SDS011;46715;40.642;-7.920;2023-05-10T08:06:34;3.10;;;1.33;;
60873;SDS011;46715;40.642;-7.920;2023-05-10T08:08:35;6.80;;;0.73;;
60873;SDS011;46715;40.642;-7.920;2023-05-10T08:10:36;3.00;;;0.95;;
60873;SDS011;46715;40.642;-7.920;2023-05-10T08:12:37;6.75;;;1.17;;
60873;SDS011;46715;40.642;-7.920;2023-05-10T08:14:39;5.03;;;1.50;;
60873;SDS011;46715;40.642;-7.920;2023-05-10T08:16:40;5.70;;;1.20;;
60873;SDS011;46715;40.642;-7.920;2023-05-10T08:18:40;6.50;;;1.27;;
60873;SDS011;46715;40.642;-7.920;2023-05-10T08:20:42;5.90;;;0.93;;
60873;SDS011;46715;40.642;-7.920;2023-05-10T08:22:43;3.90;;;1.40;;
60873;SDS011;46715;40.642;-7.920;2023-05-10T08:24:45;5.65;;;1.38;;
60873;SDS011;46715;40.642;-7.920;2023-05-10T08:26:46;4.25;;;1.20;;
60873;SDS011;46715;40.642;-7.920;2023-05-10T08:28:48;3.72;;;1.02;;
60873;SDS011;46715;40.642;-7.920;2023-05-10T08:30:51;3.10;;;1.30;;
60873;SDS011;46715;40.642;-7.920;2023-05-10T08:32:52;6.97;;;1.17;;
60873;SDS011;46715;40.642;-7.920;2023-05-10T08:36:56;4.85;;;1.20;;
60873;SDS011;46715;40.642;-7.920;2023-05-10T08:38:57;4.53;;;1.20;;
60873;SDS011;46715;40.642;-7.920;2023-05-10T08:43:04;6.35;;;1.15;;
60873;SDS011;46715;40.642;-7.920;2023-05-10T08:45:07;4.05;;;1.30;;
60873;SDS011;46715;40.642;-7.920;2023-05-10T08:47:21;5.88;;;1.35;;
60873;SDS011;46715;40.642;-7.920;2023-05-10T08:49:22;7.97;;;1.30;;
60873;SDS011;46715;40.642;-7.920;2023-05-10T08:51:25;6.47;;;1.35;;
60873;SDS011;46715;40.642;-7.920;2023-05-10T08:53:32;3.05;;;0.98;;
60873;SDS011;46715;40.642;-7.920;2023-05-10T08:55:37;3.75;;;1.40;;
60873;SDS011;46715;40.642;-7.920;2023-05-10T08:57:39;1.85;;;0.98;;
60873;SDS011;46715;40.642;-7.920;2023-05-10T08:59:39;5.13;;;1.42;;
60873;SDS011;46715;40.642;-7.920;2023-05-10T09:01:41;11.70;;;1.02;;
60873;SDS011;46715;40.642;-7.920;2023-05-10T09:03:45;4.30;;;1.00;;
60873;SDS011;46715;40.642;-7.920;2023-05-10T09:05:48;5.65;;;1.27;;
60873;SDS011;46715;40.642;-7.920;2023-05-10T09:07:50;2.72;;;1.08;;
60873;SDS011;46715;40.642;-7.920;2023-05-10T09:09:51;7.68;;;1.33;;
60873;SDS011;46715;40.642;-7.920;2023-05-10T09:11:53;4.53;;;0.77;;
60873;SDS011;46715;40.642;-7.920;2023-05-10T09:13:55;4.15;;;1.00;;
60873;SDS011;46715;40.642;-7.920;2023-05-10T09:17:58;6.43;;;1.00;;
60873;SDS011;46715;40.642;-7.920;2023-05-10T09:20:03;4.50;;;1.13;;
60873;SDS011;46715;40.642;-7.920;2023-05-10T09:22:07;4.25;;;0.93;;
60873;SDS011;46715;40.642;-7.920;2023-05-10T09:24:08;4.63;;;0.90;;
60873;SDS011;46715;40.642;-7.920;2023-05-10T09:26:09;4.50;;;1.52;;
60873;SDS011;46715;40.642;-7.920;2023-05-10T09:28:10;3.60;;;1.02;;
60873;SDS011;46715;40.642;-7.920;2023-05-10T09:30:15;3.55;;;1.00;;
60873;SDS011;46715;40.642;-7.920;2023-05-10T09:32:18;2.80;;;1.00;;
60873;SDS011;46715;40.642;-7.920;2023-05-10T09:34:19;6.13;;;1.15;;
60873;SDS011;46715;40.642;-7.920;2023-05-10T09:36:24;5.38;;;1.10;;
60873;SDS011;46715;40.642;-7.920;2023-05-10T09:38:27;9.10;;;1.00;;
60873;SDS011;46715;40.642;-7.920;2023-05-10T09:40:28;3.47;;;1.08;;
60873;SDS011;46715;40.642;-7.920;2023-05-10T09:42:31;3.53;;;1.30;;
60873;SDS011;46715;40.642;-7.920;2023-05-10T09:44:32;7.53;;;1.25;;
60873;SDS011;46715;40.642;-7.920;2023-05-10T09:46:34;5.35;;;1.40;;
60873;SDS011;46715;40.642;-7.920;2023-05-10T09:48:40;4.68;;;0.82;;
60873;SDS011;46715;40.642;-7.920;2023-05-10T09:50:43;5.32;;;1.48;;
60873;SDS011;46715;40.642;-7.920;2023-05-10T09:52:50;5.28;;;1.50;;
60873;SDS011;46715;40.642;-7.920;2023-05-10T09:54:53;3.55;;;1.40;;
60873;SDS011;46715;40.642;-7.920;2023-05-10T09:56:54;9.23;;;1.38;;
60873;SDS011;46715;40.642;-7.920;2023-05-10T09:59:01;5.55;;;1.00;;
60873;SDS011;46715;40.642;-7.920;2023-05-10T10:01:03;5.85;;;0.85;;
60873;SDS011;46715;40.642;-7.920;2023-05-10T10:03:05;4.18;;;1.35;;
60873;SDS011;46715;40.642;-7.920;2023-05-10T10:05:07;3.90;;;0.70;;
60873;SDS011;46715;40.642;-7.920;2023-05-10T10:09:09;6.50;;;1.30;;
60873;SDS011;46715;40.642;-7.920;2023-05-10T10:11:11;4.40;;;1.08;;
60873;SDS011;46715;40.642;-7.920;2023-05-10T10:13:12;6.15;;;1.25;;
60873;SDS011;46715;40.642;-7.920;2023-05-10T10:15:14;3.05;;;0.80;;
60873;SDS011;46715;40.642;-7.920;2023-05-10T10:17:15;5.45;;;1.50;;
60873;SDS011;46715;40.642;-7.920;2023-05-10T10:19:20;4.50;;;1.20;;
60873;SDS011;46715;40.642;-7.920;2023-05-10T10:21:21;4.55;;;0.88;;
60873;SDS011;46715;40.642;-7.920;2023-05-10T10:23:23;3.25;;;1.00;;
60873;SDS011;46715;40.642;-7.920;2023-05-10T10:25:26;3.15;;;1.33;;
60873;SDS011;46715;40.642;-7.920;2023-05-10T10:36:46;4.30;;;1.00;;
60873;SDS011;46715;40.642;-7.920;2023-05-10T10:40:56;3.95;;;1.33;;
60873;SDS011;46715;40.642;-7.920;2023-05-10T10:43:27;3.03;;;0.70;;
60873;SDS011;46715;40.642;-7.920;2023-05-10T10:45:28;3.22;;;0.93;;
60873;SDS011;46715;40.642;-7.920;2023-05-10T10:47:29;3.70;;;0.98;;
60873;SDS011;46715;40.642;-7.920;2023-05-10T10:49:37;6.47;;;1.35;;
60873;SDS011;46715;40.642;-7.920;2023-05-10T10:52:12;4.32;;;1.10;;
60873;SDS011;46715;40.642;-7.920;2023-05-10T10:54:26;5.20;;;1.10;;
60873;SDS011;46715;40.642;-7.920;2023-05-10T10:56:28;3.80;;;1.52;;
60873;SDS011;46715;40.642;-7.920;2023-05-10T10:58:30;4.18;;;1.02;;
60873;SDS011;46715;40.642;-7.920;2023-05-10T11:00:37;5.25;;;1.05;;
60873;SDS011;46715;40.642;-7.920;2023-05-10T11:02:44;5.25;;;1.23;;
60873;SDS011;46715;40.642;-7.920;2023-05-10T11:04:48;5.43;;;1.25;;
60873;SDS011;46715;40.642;-7.920;2023-05-10T11:06:48;5.68;;;1.45;;
60873;SDS011;46715;40.642;-7.920;2023-05-10T11:08:50;5.72;;;1.30;;
60873;SDS011;46715;40.642;-7.920;2023-05-10T11:13:04;4.53;;;1.10;;
60873;SDS011;46715;40.642;-7.920;2023-05-10T11:15:09;2.60;;;1.42;;
60873;SDS011;46715;40.642;-7.920;2023-05-10T11:17:26;8.27;;;1.70;;
60873;SDS011;46715;40.642;-7.920;2023-05-10T11:19:29;4.38;;;1.02;;
60873;SDS011;46715;40.642;-7.920;2023-05-10T11:21:31;5.68;;;1.48;;
60873;SDS011;46715;40.642;-7.920;2023-05-10T11:23:47;4.05;;;1.00;;
60873;SDS011;46715;40.642;-7.920;2023-05-10T11:25:48;3.05;;;1.25;;
60873;SDS011;46715;40.642;-7.920;2023-05-10T11:27:53;3.47;;;1.73;;
60873;SDS011;46715;40.642;-7.920;2023-05-10T11:30:04;6.70;;;1.58;;
60873;SDS011;46715;40.642;-7.920;2023-05-10T11:32:06;5.38;;;1.52;;
60873;SDS011;46715;40.642;-7.920;2023-05-10T11:38:18;6.65;;;1.60;;
60873;SDS011;46715;40.642;-7.920;2023-05-10T11:40:33;6.13;;;1.38;;
60873;SDS011;46715;40.642;-7.920;2023-05-10T11:42:38;4.70;;;1.33;;
60873;SDS011;46715;40.642;-7.920;2023-05-10T11:44:39;3.67;;;1.40;;
60873;SDS011;46715;40.642;-7.920;2023-05-10T11:46:40;6.35;;;1.17;;
60873;SDS011;46715;40.642;-7.920;2023-05-10T11:48:41;4.68;;;1.38;;
60873;SDS011;46715;40.642;-7.920;2023-05-10T11:50:43;5.63;;;1.20;;
60873;SDS011;46715;40.642;-7.920;2023-05-10T11:52:44;9.65;;;1.48;;
60873;SDS011;46715;40.642;-7.920;2023-05-10T11:54:50;8.75;;;1.42;;
60873;SDS011;46715;40.642;-7.920;2023-05-10T11:56:52;4.00;;;1.30;;
60873;SDS011;46715;40.642;-7.920;2023-05-10T11:58:55;12.80;;;1.75;;
60873;SDS011;46715;40.642;-7.920;2023-05-10T12:00:58;4.43;;;1.10;;
60873;SDS011;46715;40.642;-7.920;2023-05-10T12:03:00;2.78;;;1.00;;
60873;SDS011;46715;40.642;-7.920;2023-05-10T12:05:02;4.63;;;1.10;;
60873;SDS011;46715;40.642;-7.920;2023-05-10T12:07:05;6.22;;;1.77;;
60873;SDS011;46715;40.642;-7.920;2023-05-10T12:09:06;5.47;;;1.13;;
60873;SDS011;46715;40.642;-7.920;2023-05-10T12:11:11;8.10;;;1.83;;
60873;SDS011;46715;40.642;-7.920;2023-05-10T12:13:17;4.90;;;1.55;;
60873;SDS011;46715;40.642;-7.920;2023-05-10T12:15:20;5.63;;;1.33;;
60873;SDS011;46715;40.642;-7.920;2023-05-10T12:17:22;5.78;;;1.50;;
60873;SDS011;46715;40.642;-7.920;2023-05-10T12:19:27;5.07;;;1.48;;
60873;SDS011;46715;40.642;-7.920;2023-05-10T12:21:35;4.85;;;1.10;;
60873;SDS011;46715;40.642;-7.920;2023-05-10T12:23:45;3.90;;;1.30;;
60873;SDS011;46715;40.642;-7.920;2023-05-10T12:25:47;4.63;;;1.15;;
60873;SDS011;46715;40.642;-7.920;2023-05-10T12:27:56;4.05;;;1.40;;
60873;SDS011;46715;40.642;-7.920;2023-05-10T12:30:01;3.83;;;1.25;;
60873;SDS011;46715;40.642;-7.920;2023-05-10T12:32:03;6.10;;;1.40;;
60873;SDS011;46715;40.642;-7.920;2023-05-10T12:34:04;5.72;;;1.67;;
60873;SDS011;46715;40.642;-7.920;2023-05-10T12:36:05;5.10;;;1.25;;
60873;SDS011;46715;40.642;-7.920;2023-05-10T12:38:33;4.70;;;1.02;;
60873;SDS011;46715;40.642;-7.920;2023-05-10T12:40:47;7.57;;;1.90;;
60873;SDS011;46715;40.642;-7.920;2023-05-10T12:42:51;4.38;;;1.10;;
60873;SDS011;46715;40.642;-7.920;2023-05-10T12:44:55;5.40;;;1.60;;
60873;SDS011;46715;40.642;-7.920;2023-05-10T12:47:01;6.30;;;1.50;;
60873;SDS011;46715;40.642;-7.920;2023-05-10T12:49:06;4.68;;;1.02;;
60873;SDS011;46715;40.642;-7.920;2023-05-10T12:51:06;4.25;;;1.30;;
60873;SDS011;46715;40.642;-7.920;2023-05-10T12:53:13;4.10;;;1.35;;
60873;SDS011;46715;40.642;-7.920;2023-05-10T12:55:18;9.93;;;1.40;;
60873;SDS011;46715;40.642;-7.920;2023-05-10T12:57:24;5.15;;;1.50;;
60873;SDS011;46715;40.642;-7.920;2023-05-10T12:59:26;4.72;;;0.90;;
60873;SDS011;46715;40.642;-7.920;2023-05-10T13:01:27;3.92;;;0.98;;
60873;SDS011;46715;40.642;-7.920;2023-05-10T13:03:28;6.22;;;1.58;;
60873;SDS011;46715;40.642;-7.920;2023-05-10T13:05:29;4.38;;;1.27;;